createdAt,value
2019-04-14T00:01:41.266Z,12.14
2019-04-14T00:04:18.198Z,11.98
2019-04-14T00:06:48.949Z,12.07
2019-04-14T00:09:20.561Z,12.16
2019-04-14T00:11:51.009Z,12.21
2019-04-14T00:14:20.852Z,12.10
2019-04-14T00:16:51.041Z,12.26
2019-04-14T00:19:21.804Z,12.30
2019-04-14T00:21:52.237Z,12.16
2019-04-14T00:24:22.859Z,12.09
2019-04-14T00:26:53.115Z,12.04
2019-04-14T00:29:23.902Z,11.77
2019-04-14T00:31:54.205Z,12.05
2019-04-14T00:34:44.199Z,12.30
2019-04-14T00:37:33.668Z,11.89
2019-04-14T00:40:08.304Z,11.67
2019-04-14T00:42:45.205Z,11.87
2019-04-14T00:45:17.699Z,11.88
2019-04-14T00:48:01.114Z,11.53
2019-04-14T00:50:23.911Z,11.47
2019-04-14T00:52:54.619Z,11.47
2019-04-14T00:55:27.143Z,11.30
2019-04-14T00:57:57.291Z,11.50
2019-04-14T01:00:27.945Z,11.39
2019-04-14T01:02:57.965Z,11.28
2019-04-14T01:05:31.419Z,11.19
2019-04-14T01:08:00.985Z,11.38
2019-04-14T01:10:32.184Z,11.41
2019-04-14T01:13:02.696Z,11.52
2019-04-14T01:15:44.799Z,11.69
2019-04-14T01:18:03.559Z,11.50
2019-04-14T01:20:34.418Z,11.41
2019-04-14T01:23:04.837Z,11.56
2019-04-14T01:25:34.666Z,11.47
2019-04-14T01:28:06.695Z,10.90
2019-04-14T01:30:37.346Z,11.35
2019-04-14T01:33:07.623Z,11.50
2019-04-14T01:35:38.221Z,11.63
2019-04-14T01:38:08.513Z,11.36
2019-04-14T01:40:42.332Z,11.53
2019-04-14T01:43:12.992Z,11.56
2019-04-14T01:45:43.382Z,11.50
2019-04-14T01:48:14.835Z,11.34
2019-04-14T01:51:04.781Z,11.21
2019-04-14T01:53:44.731Z,11.04
2019-04-14T01:56:19.378Z,10.85
2019-04-14T01:58:51.341Z,11.00
2019-04-14T02:01:24.365Z,11.17
2019-04-14T02:03:54.765Z,10.73
2019-04-14T02:06:24.602Z,10.96
2019-04-14T02:08:54.697Z,10.89
2019-04-14T02:11:29.208Z,11.00
2019-04-14T02:14:01.920Z,11.08
2019-04-14T02:16:39.718Z,10.46
2019-04-14T02:19:04.553Z,10.93
2019-04-14T02:21:35.024Z,10.75
2019-04-14T02:24:04.926Z,10.94
2019-04-14T02:26:35.642Z,10.84
2019-04-14T02:29:06.042Z,10.99
2019-04-14T02:32:01.830Z,10.96
2019-04-14T02:34:49.570Z,10.57
2019-04-14T02:37:16.898Z,10.68
2019-04-14T02:39:46.593Z,10.76
2019-04-14T02:44:44.021Z,10.72
2019-04-14T02:47:39.121Z,10.88
2019-04-14T02:49:50.703Z,10.79
2019-04-14T02:52:26.670Z,10.94
2019-04-14T03:02:29.622Z,11.04
2019-04-14T03:05:02.464Z,11.12
2019-04-14T03:10:01.092Z,11.12
2019-04-14T03:12:38.178Z,11.08
2019-04-14T03:15:09.540Z,10.99
2019-04-14T03:18:18.701Z,10.84
2019-04-14T03:22:49.746Z,10.81
2019-04-14T03:25:22.713Z,10.76
2019-04-14T03:28:06.822Z,10.65
2019-04-14T03:31:20.007Z,10.78
2019-04-14T03:38:24.668Z,10.49
2019-04-14T03:40:50.484Z,10.55
2019-04-14T03:46:04.723Z,10.43
2019-04-14T03:48:45.200Z,10.40
2019-04-14T03:51:06.860Z,10.26
2019-04-14T03:53:27.730Z,10.08
2019-04-14T03:55:59.970Z,10.10
2019-04-14T03:58:29.259Z,10.15
2019-04-14T04:01:01.958Z,10.12
2019-04-14T04:03:32.401Z,10.07
2019-04-14T04:06:03.173Z,9.85
2019-04-14T04:08:33.489Z,10.09
2019-04-14T04:11:02.560Z,10.17
2019-04-14T04:13:32.922Z,10.28
2019-04-14T04:16:15.901Z,10.02
2019-04-14T04:18:56.455Z,10.12
2019-04-14T04:21:22.720Z,10.05
2019-04-14T04:23:59.682Z,10.12
2019-04-14T04:26:36.614Z,10.36
2019-04-14T04:29:11.236Z,9.93
2019-04-14T04:31:59.150Z,10.09
2019-04-14T04:34:42.372Z,10.14
2019-04-14T04:37:17.283Z,10.13
2019-04-14T04:39:49.531Z,10.06
2019-04-14T04:42:19.847Z,9.65
2019-04-14T04:44:51.002Z,10.10
2019-04-14T04:47:21.632Z,10.04
2019-04-14T04:49:53.353Z,10.34
2019-04-14T04:52:23.894Z,10.51
2019-04-14T04:54:53.784Z,10.59
2019-04-14T04:57:24.300Z,10.45
2019-04-14T04:59:56.466Z,10.51
2019-04-14T05:02:26.649Z,10.64
2019-04-14T05:04:59.368Z,10.12
2019-04-14T05:07:30.087Z,10.38
2019-04-14T05:10:04.683Z,10.36
2019-04-14T05:12:37.055Z,10.57
2019-04-14T05:15:10.497Z,10.60
2019-04-14T05:17:45.252Z,10.83
2019-04-14T05:20:18.116Z,10.79
2019-04-14T05:22:48.814Z,10.86
2019-04-14T05:25:21.576Z,10.60
2019-04-14T05:27:52.236Z,11.05
2019-04-14T05:30:22.656Z,11.21
2019-04-14T05:32:52.259Z,11.08
2019-04-14T05:35:22.806Z,11.33
2019-04-14T05:37:53.336Z,11.58
2019-04-14T05:40:23.847Z,11.86
2019-04-14T05:42:54.359Z,11.85
2019-04-14T05:45:26.645Z,11.98
2019-04-14T05:47:57.064Z,12.18
2019-04-14T05:50:27.562Z,12.09
2019-04-14T05:52:57.937Z,12.02
2019-04-14T05:55:28.576Z,12.61
2019-04-14T05:58:01.441Z,12.61
2019-04-14T06:00:34.222Z,12.41
2019-04-14T06:03:06.688Z,12.68
2019-04-14T06:05:36.231Z,12.70
2019-04-14T06:08:05.731Z,12.30
2019-04-14T06:10:35.776Z,12.87
2019-04-14T06:13:06.326Z,13.05
2019-04-14T06:15:37.297Z,13.10
2019-04-14T06:18:11.426Z,13.61
2019-04-14T06:20:41.289Z,14.25
2019-04-14T06:23:11.813Z,14.55
2019-04-14T06:25:42.116Z,14.95
2019-04-14T06:28:11.535Z,15.29
2019-04-14T06:30:58.493Z,15.45
2019-04-14T06:33:46.756Z,16.01
2019-04-14T06:36:31.155Z,16.25
2019-04-14T06:39:12.215Z,16.67
2019-04-14T06:41:41.731Z,16.07
2019-04-14T06:44:12.190Z,15.72
2019-04-14T06:46:41.655Z,15.89
2019-04-14T06:49:12.271Z,16.07
2019-04-14T06:51:42.683Z,16.24
2019-04-14T06:54:13.084Z,16.95
2019-04-14T06:56:42.447Z,18.43
2019-04-14T06:59:12.889Z,19.31
2019-04-14T07:01:43.255Z,20.28
2019-04-14T07:04:13.555Z,21.25
2019-04-14T07:06:45.392Z,22.09
2019-04-14T07:09:16.665Z,24.19
2019-04-14T07:11:47.381Z,24.48
2019-04-14T07:14:17.943Z,24.94
2019-04-14T07:16:47.474Z,27.46
2019-04-14T07:19:17.973Z,26.92
2019-04-14T07:21:48.381Z,29.77
2019-04-14T07:24:17.783Z,30.01
2019-04-14T07:26:48.252Z,30.18
2019-04-14T07:29:18.771Z,31.54
2019-04-14T07:32:06.071Z,30.06
2019-04-14T07:34:44.018Z,32.24
2019-04-14T07:37:18.837Z,33.24
2019-04-14T07:39:57.464Z,31.60
2019-04-14T07:42:33.528Z,31.58
2019-04-14T07:45:07.672Z,32.55
2019-04-14T07:47:48.790Z,34.96
2019-04-14T07:50:20.983Z,34.74
2019-04-14T07:53:01.868Z,31.54
2019-04-14T07:55:44.953Z,31.72
2019-04-14T07:58:22.747Z,25.58
2019-04-14T08:00:55.149Z,28.92
2019-04-14T08:03:43.596Z,29.79
2019-04-14T08:06:13.111Z,25.99
2019-04-14T08:08:43.679Z,24.68
2019-04-14T08:11:15.376Z,29.99
2019-04-14T08:13:45.740Z,35.52
2019-04-14T08:16:19.055Z,35.52
2019-04-14T08:18:51.258Z,35.17
2019-04-14T08:21:21.770Z,33.67
2019-04-14T08:23:52.387Z,33.29
2019-04-14T08:26:23.410Z,32.78
2019-04-14T08:28:53.817Z,34.11
2019-04-14T08:31:24.331Z,33.86
2019-04-14T08:34:01.731Z,34.08
2019-04-14T08:36:33.372Z,32.15
2019-04-14T08:39:06.828Z,34.43
2019-04-14T08:41:38.795Z,35.26
2019-04-14T08:44:12.553Z,33.08
2019-04-14T08:46:46.544Z,34.52
2019-04-14T08:49:23.534Z,31.93
2019-04-14T08:51:54.754Z,29.15
2019-04-14T08:54:26.806Z,27.36
2019-04-14T08:57:04.727Z,30.31
2019-04-14T08:59:36.701Z,33.20
2019-04-14T09:02:26.951Z,35.57
2019-04-14T09:05:06.607Z,36.02
2019-04-14T09:07:46.750Z,32.34
2019-04-14T09:10:29.545Z,31.98
2019-04-14T09:13:01.584Z,29.08
2019-04-14T09:15:32.198Z,29.70
2019-04-14T09:18:04.903Z,28.62
2019-04-14T09:20:35.405Z,28.05
2019-04-14T09:23:05.817Z,28.16
2019-04-14T09:25:36.593Z,28.42
2019-04-14T09:28:07.143Z,28.03
2019-04-14T09:30:36.659Z,30.00
2019-04-14T09:33:07.347Z,27.80
2019-04-14T09:35:37.845Z,31.35
2019-04-14T09:38:08.456Z,31.32
2019-04-14T09:40:39.283Z,28.91
2019-04-14T09:43:08.654Z,28.91
2019-04-14T09:45:39.045Z,31.35
2019-04-14T09:48:09.659Z,30.27
2019-04-14T09:50:39.979Z,30.27
2019-04-14T09:53:10.409Z,29.48
2019-04-14T09:55:39.882Z,25.49
2019-04-14T09:58:10.247Z,26.52
2019-04-14T10:00:42.326Z,26.19
2019-04-14T10:03:14.705Z,25.41
2019-04-14T10:05:44.176Z,23.96
2019-04-14T10:08:16.556Z,24.66
2019-04-14T10:10:47.070Z,25.07
2019-04-14T10:13:17.473Z,24.09
2019-04-14T10:15:47.994Z,24.16
2019-04-14T10:18:18.596Z,24.54
2019-04-14T10:20:49.213Z,21.32
2019-04-14T10:23:18.628Z,22.02
2019-04-14T10:25:48.981Z,23.76
2019-04-14T10:28:22.629Z,20.65
2019-04-14T10:30:54.511Z,22.36
2019-04-14T10:33:26.485Z,22.49
2019-04-14T10:35:56.981Z,19.15
2019-04-14T10:38:27.483Z,21.87
2019-04-14T10:40:59.043Z,20.05
2019-04-14T10:43:31.011Z,20.47
2019-04-14T10:46:00.731Z,21.84
2019-04-14T10:48:32.625Z,19.31
2019-04-14T10:51:03.060Z,18.18
2019-04-14T10:53:31.808Z,18.57
2019-04-14T10:56:01.165Z,17.39
2019-04-14T10:58:33.348Z,20.11
2019-04-14T11:01:04.163Z,21.92
2019-04-14T11:03:36.557Z,22.45
2019-04-14T11:06:14.376Z,21.33
2019-04-14T11:08:44.777Z,21.16
2019-04-14T11:11:14.357Z,20.14
2019-04-14T11:13:45.902Z,21.82
2019-04-14T11:16:16.311Z,19.46
2019-04-14T11:18:46.713Z,21.81
2019-04-14T11:21:16.084Z,19.86
2019-04-14T11:23:46.480Z,19.39
2019-04-14T11:26:16.787Z,22.17
2019-04-14T11:28:47.187Z,22.04
2019-04-14T11:31:19.271Z,22.66
2019-04-14T11:33:57.605Z,18.29
2019-04-14T11:36:29.694Z,20.94
2019-04-14T11:39:04.284Z,21.70
2019-04-14T11:41:35.821Z,21.68
2019-04-14T11:44:05.358Z,21.89
2019-04-14T11:46:34.689Z,21.38
2019-04-14T11:49:04.475Z,21.50
2019-04-14T11:51:35.144Z,17.95
2019-04-14T11:54:05.762Z,18.64
2019-04-14T11:56:36.280Z,20.44
2019-04-14T11:59:06.886Z,20.97
2019-04-14T12:01:54.005Z,20.78
2019-04-14T12:04:42.268Z,19.27
2019-04-14T12:07:14.253Z,21.55
2019-04-14T12:10:01.802Z,21.93
2019-04-14T12:12:30.614Z,21.50
2019-04-14T12:15:01.230Z,21.82
2019-04-14T12:17:35.186Z,21.22
2019-04-14T12:20:08.828Z,20.65
2019-04-14T12:22:37.317Z,21.17
2019-04-14T12:25:09.863Z,21.70
2019-04-14T12:27:39.810Z,20.51
2019-04-14T12:30:13.668Z,20.27
2019-04-14T12:32:46.077Z,20.74
2019-04-14T12:35:16.591Z,20.80
2019-04-14T12:37:47.098Z,20.25
2019-04-14T12:40:19.049Z,19.69
2019-04-14T12:42:50.006Z,17.67
2019-04-14T12:45:24.790Z,18.25
2019-04-14T12:47:55.238Z,20.11
2019-04-14T12:50:39.283Z,20.61
2019-04-14T12:53:09.796Z,22.43
2019-04-14T12:55:39.202Z,22.44
2019-04-14T12:58:13.215Z,22.62
2019-04-14T13:00:47.487Z,23.03
2019-04-14T13:03:18.107Z,22.73
2019-04-14T13:05:49.867Z,22.61
2019-04-14T13:08:19.226Z,22.32
2019-04-14T13:10:51.197Z,22.22
2019-04-14T13:13:20.503Z,22.13
2019-04-14T13:15:51.181Z,23.53
2019-04-14T13:18:23.671Z,23.66
2019-04-14T13:20:53.037Z,22.66
2019-04-14T13:23:23.990Z,23.05
2019-04-14T13:25:54.409Z,23.37
2019-04-14T13:28:23.870Z,23.76
2019-04-14T13:30:54.151Z,24.15
2019-04-14T13:33:24.640Z,23.56
2019-04-14T13:35:57.035Z,22.09
2019-04-14T13:38:27.433Z,19.38
2019-04-14T13:41:00.241Z,19.63
2019-04-14T13:43:30.652Z,20.25
2019-04-14T13:46:00.267Z,19.39
2019-04-14T13:48:31.281Z,18.59
2019-04-14T13:51:00.657Z,19.66
2019-04-14T13:53:30.091Z,18.92
2019-04-14T13:56:00.485Z,19.45
2019-04-14T13:58:30.888Z,19.24
2019-04-14T14:01:00.258Z,20.08
2019-04-14T14:03:31.595Z,20.16
2019-04-14T14:06:01.070Z,19.29
2019-04-14T14:08:30.468Z,19.52
2019-04-14T14:11:02.608Z,19.70
2019-04-14T14:13:50.766Z,18.73
2019-04-14T14:16:36.380Z,17.50
2019-04-14T14:19:08.497Z,17.33
2019-04-14T14:21:49.658Z,18.05
2019-04-14T14:24:33.437Z,19.35
2019-04-14T14:27:05.512Z,18.23
2019-04-14T14:29:38.004Z,18.09
2019-04-14T14:32:09.092Z,19.26
2019-04-14T14:34:38.448Z,19.70
2019-04-14T14:37:08.812Z,20.11
2019-04-14T14:39:39.212Z,19.98
2019-04-14T14:42:09.830Z,20.73
2019-04-14T14:44:46.643Z,19.41
2019-04-14T14:47:17.642Z,19.14
2019-04-14T14:50:05.699Z,18.24
2019-04-14T14:52:37.362Z,19.24
2019-04-14T14:55:12.142Z,18.37
2019-04-14T14:57:42.559Z,18.32
2019-04-14T15:00:14.942Z,19.55
2019-04-14T15:02:44.350Z,18.91
2019-04-14T15:05:13.663Z,19.82
2019-04-14T15:07:43.067Z,18.92
2019-04-14T15:10:14.698Z,20.02
2019-04-14T15:12:45.239Z,20.20
2019-04-14T15:15:15.697Z,20.55
2019-04-14T15:17:45.126Z,19.87
2019-04-14T15:20:15.677Z,17.93
2019-04-14T15:22:48.378Z,19.05
2019-04-14T15:25:18.783Z,19.79
2019-04-14T15:27:49.090Z,20.06
2019-04-14T15:30:21.266Z,19.98
2019-04-14T15:32:53.585Z,19.91
2019-04-14T15:35:25.210Z,19.28
2019-04-14T15:37:55.614Z,18.69
2019-04-14T15:40:25.037Z,18.71
2019-04-14T15:42:55.381Z,19.33
2019-04-14T15:45:27.775Z,19.88
2019-04-14T15:47:58.283Z,20.11
2019-04-14T15:50:28.685Z,20.05
2019-04-14T15:52:57.946Z,20.09
2019-04-14T15:55:28.458Z,19.71
2019-04-14T15:58:15.362Z,18.87
2019-04-14T16:01:02.272Z,18.82
2019-04-14T16:03:40.200Z,18.86
2019-04-14T16:06:13.768Z,18.56
2019-04-14T16:08:47.798Z,18.12
2019-04-14T16:11:35.867Z,18.12
2019-04-14T16:14:08.144Z,18.22
2019-04-14T16:16:40.112Z,18.44
2019-04-14T16:19:13.234Z,18.41
2019-04-14T16:21:42.712Z,18.33
2019-04-14T16:24:12.123Z,17.84
2019-04-14T16:26:46.025Z,17.71
2019-04-14T16:29:24.047Z,16.68
2019-04-14T16:32:12.417Z,17.76
2019-04-14T16:34:44.492Z,18.29
2019-04-14T16:37:14.901Z,18.23
2019-04-14T16:39:45.304Z,17.92
2019-04-14T16:42:16.385Z,17.44
2019-04-14T16:44:45.814Z,17.74
2019-04-14T16:47:19.553Z,17.57
2019-04-14T16:49:52.046Z,17.46
2019-04-14T16:52:30.075Z,17.12
2019-04-14T16:55:03.727Z,17.11
2019-04-14T16:57:34.766Z,17.56
2019-04-14T17:00:05.971Z,17.42
2019-04-14T17:02:38.489Z,17.32
2019-04-14T17:05:09.104Z,17.46
2019-04-14T17:07:38.512Z,16.96
2019-04-14T17:10:09.091Z,16.89
2019-04-14T17:12:39.901Z,16.57
2019-04-14T17:15:14.713Z,16.81
2019-04-14T17:17:49.589Z,16.77
2019-04-14T17:20:23.278Z,16.63
2019-04-14T17:23:04.522Z,16.72
2019-04-14T17:25:41.318Z,17.02
2019-04-14T17:28:24.015Z,16.34
2019-04-14T17:31:06.843Z,16.40
2019-04-14T17:33:38.940Z,16.35
2019-04-14T17:36:12.052Z,16.53
2019-04-14T17:38:48.779Z,16.02
2019-04-14T17:41:25.178Z,16.29
2019-04-14T17:44:05.828Z,15.89
2019-04-14T17:46:54.397Z,16.19
2019-04-14T17:49:42.563Z,15.46
2019-04-14T17:52:30.841Z,15.41
2019-04-14T17:55:02.811Z,15.38
2019-04-14T17:57:51.180Z,15.73
2019-04-14T18:00:25.149Z,16.01
2019-04-14T18:03:01.811Z,15.92
2019-04-14T18:05:38.408Z,15.86
2019-04-14T18:08:25.601Z,15.75
2019-04-14T18:11:12.494Z,15.64
2019-04-14T18:13:55.475Z,15.57
2019-04-14T18:16:36.176Z,15.09
2019-04-14T18:19:11.077Z,15.80
2019-04-14T18:21:44.266Z,15.44
2019-04-14T18:24:14.713Z,15.45
2019-04-14T18:26:44.195Z,15.56
2019-04-14T18:29:31.542Z,15.37
2019-04-14T18:32:19.975Z,14.83
2019-04-14T18:34:57.691Z,15.44
2019-04-14T18:37:34.793Z,15.77
2019-04-14T18:40:22.068Z,15.67
2019-04-14T18:42:56.802Z,15.33
2019-04-14T18:45:35.149Z,15.26
2019-04-14T18:48:15.781Z,15.49
2019-04-14T18:50:47.988Z,15.49
2019-04-14T18:53:19.007Z,15.32
2019-04-14T18:55:52.858Z,15.82
2019-04-14T18:58:45.754Z,15.89
2019-04-14T19:01:17.794Z,15.56
2019-04-14T19:03:47.259Z,15.93
2019-04-14T19:06:17.875Z,15.70
2019-04-14T19:08:46.705Z,15.84
2019-04-14T19:11:19.308Z,15.43
2019-04-14T19:14:02.146Z,15.15
2019-04-14T19:16:39.610Z,15.10
2019-04-14T19:19:09.857Z,15.31
2019-04-14T19:21:41.724Z,15.03
2019-04-14T19:24:12.115Z,15.22
2019-04-14T19:26:42.983Z,15.23
2019-04-14T19:29:13.346Z,15.31
2019-04-14T19:31:44.943Z,15.55
2019-04-14T19:34:14.304Z,15.56
2019-04-14T19:36:43.742Z,15.75
2019-04-14T19:39:13.137Z,15.72
2019-04-14T19:41:45.394Z,15.51
2019-04-14T19:44:14.741Z,15.77
2019-04-14T19:46:49.320Z,15.77
2019-04-14T19:49:21.291Z,15.77
2019-04-14T19:51:53.326Z,16.02
2019-04-14T19:54:25.759Z,15.76
2019-04-14T19:56:58.250Z,15.88
2019-04-14T19:59:28.666Z,16.10
2019-04-14T20:01:58.138Z,15.96
2019-04-14T20:04:30.617Z,15.95
2019-04-14T20:06:59.988Z,15.57
2019-04-14T20:09:31.746Z,15.89
2019-04-14T20:12:00.687Z,15.64
2019-04-14T20:14:33.283Z,15.76
2019-04-14T20:17:07.877Z,15.75
2019-04-14T20:19:40.947Z,15.20
2019-04-14T20:22:27.792Z,15.62
2019-04-14T20:25:11.464Z,15.62
2019-04-14T20:27:43.710Z,15.72
2019-04-14T20:30:14.703Z,15.20
2019-04-14T20:32:45.974Z,15.46
2019-04-14T20:35:17.520Z,15.52
2019-04-14T20:37:47.984Z,15.49
2019-04-14T20:40:19.378Z,15.74
2019-04-14T20:42:52.035Z,15.25
2019-04-14T20:45:22.434Z,15.49
2019-04-14T20:47:51.811Z,15.46
2019-04-14T20:50:21.204Z,15.32
2019-04-14T20:52:50.773Z,15.65
2019-04-14T20:55:21.344Z,15.54
2019-04-14T20:57:51.652Z,15.49
2019-04-14T21:00:21.953Z,15.32
2019-04-14T21:02:55.942Z,15.24
2019-04-14T21:05:39.886Z,15.11
2019-04-14T21:08:25.956Z,15.10
2019-04-14T21:11:08.793Z,15.31
2019-04-14T21:13:42.653Z,15.19
2019-04-14T21:16:30.913Z,15.24
2019-04-14T21:19:01.840Z,15.04
2019-04-14T21:21:35.728Z,15.02
2019-04-14T21:24:13.706Z,15.09
2019-04-14T21:26:47.570Z,15.09
2019-04-14T21:29:33.647Z,14.95
2019-04-14T21:32:13.299Z,15.01
2019-04-14T21:34:47.829Z,15.22
2019-04-14T21:37:28.897Z,14.84
2019-04-14T21:40:09.842Z,15.24
2019-04-14T21:42:40.818Z,15.28
2019-04-14T21:45:13.065Z,15.20
2019-04-14T21:47:43.568Z,15.45
2019-04-14T21:50:14.283Z,15.45
2019-04-14T21:52:49.957Z,15.53
2019-04-14T21:55:19.599Z,15.15
2019-04-14T21:57:53.855Z,15.39
2019-04-14T22:00:45.820Z,15.34
2019-04-14T22:03:17.966Z,15.18
2019-04-14T22:05:49.873Z,15.24
2019-04-14T22:08:27.074Z,15.01
2019-04-14T22:11:11.006Z,15.18
2019-04-14T22:13:41.410Z,15.33
2019-04-14T22:16:10.783Z,15.18
2019-04-14T22:18:41.205Z,15.22
2019-04-14T22:21:13.162Z,15.05
2019-04-14T22:23:43.670Z,14.83
2019-04-14T22:26:25.533Z,15.35
2019-04-14T22:28:47.939Z,15.39
2019-04-14T22:31:18.323Z,15.40
2019-04-14T22:33:47.797Z,15.54
2019-04-14T22:36:18.197Z,15.38
2019-04-14T22:38:48.710Z,15.14
2019-04-14T22:41:19.125Z,15.18
2019-04-14T22:43:49.513Z,15.20
2019-04-14T22:46:19.923Z,15.01
2019-04-14T22:48:51.789Z,15.10
2019-04-14T22:51:21.204Z,15.32
2019-04-14T22:53:50.615Z,15.14
2019-04-14T22:56:21.132Z,15.44
2019-04-14T22:58:51.233Z,15.42
2019-04-14T23:01:23.275Z,15.23
2019-04-14T23:04:04.145Z,15.35
2019-04-14T23:06:51.198Z,15.36
2019-04-14T23:09:22.549Z,15.28
2019-04-14T23:12:00.323Z,15.50
2019-04-14T23:14:32.413Z,15.51
2019-04-14T23:17:16.188Z,15.45
2019-04-14T23:19:59.855Z,15.39
2019-04-14T23:22:41.751Z,15.39
2019-04-14T23:25:14.339Z,15.09
2019-04-14T23:27:43.639Z,15.34
2019-04-14T23:30:14.110Z,15.18
2019-04-14T23:32:44.522Z,15.45
2019-04-14T23:35:15.128Z,15.62
2019-04-14T23:37:45.015Z,15.29
2019-04-14T23:40:14.487Z,15.30
2019-04-14T23:42:44.778Z,15.44
2019-04-14T23:45:16.335Z,15.42
2019-04-14T23:47:46.856Z,15.64
2019-04-14T23:50:18.916Z,15.59
2019-04-14T23:52:49.322Z,15.50
2019-04-14T23:55:19.729Z,15.41
2019-04-14T23:57:49.136Z,15.33
